sensor_id;sensor_type;location;lat;lon;timestamp;P1;durP1;ratioP1;P2;durP2;ratioP2
76098;SDS011;64828;49.956;8.636;2024-02-15T00:00:05;8.65;;;4.20;;
76098;SDS011;64828;49.956;8.636;2024-02-15T00:00:23;7.70;;;4.13;;
76098;SDS011;64828;49.956;8.636;2024-02-15T00:00:40;4.60;;;3.47;;
76098;SDS011;64828;49.956;8.636;2024-02-15T00:00:58;5.40;;;3.72;;
76098;SDS011;64828;49.956;8.636;2024-02-15T00:01:14;5.68;;;4.03;;
76098;SDS011;64828;49.956;8.636;2024-02-15T00:01:30;5.30;;;3.93;;
76098;SDS011;64828;49.956;8.636;2024-02-15T00:01:46;5.85;;;3.85;;
76098;SDS011;64828;49.956;8.636;2024-02-15T00:02:01;5.85;;;3.80;;
76098;SDS011;64828;49.956;8.636;2024-02-15T00:02:17;5.30;;;3.73;;
76098;SDS011;64828;49.956;8.636;2024-02-15T00:02:32;5.93;;;3.78;;
76098;SDS011;64828;49.956;8.636;2024-02-15T00:02:48;6.17;;;3.83;;
76098;SDS011;64828;49.956;8.636;2024-02-15T00:03:04;6.00;;;3.75;;
76098;SDS011;64828;49.956;8.636;2024-02-15T00:03:21;6.25;;;4.00;;
76098;SDS011;64828;49.956;8.636;2024-02-15T00:03:37;6.55;;;4.00;;
76098;SDS011;64828;49.956;8.636;2024-02-15T00:03:52;6.68;;;3.85;;
76098;SDS011;64828;49.956;8.636;2024-02-15T00:04:08;6.63;;;3.80;;
76098;SDS011;64828;49.956;8.636;2024-02-15T00:04:25;6.50;;;4.03;;
76098;SDS011;64828;49.956;8.636;2024-02-15T00:04:41;6.47;;;3.97;;
76098;SDS011;64828;49.956;8.636;2024-02-15T00:04:58;6.45;;;3.80;;
76098;SDS011;64828;49.956;8.636;2024-02-15T00:05:14;5.70;;;3.60;;
76098;SDS011;64828;49.956;8.636;2024-02-15T00:05:30;5.07;;;3.65;;
76098;SDS011;64828;49.956;8.636;2024-02-15T00:05:46;5.03;;;3.63;;
76098;SDS011;64828;49.956;8.636;2024-02-15T00:06:02;6.28;;;3.88;;
76098;SDS011;64828;49.956;8.636;2024-02-15T00:06:19;6.50;;;3.78;;
76098;SDS011;64828;49.956;8.636;2024-02-15T00:06:35;5.07;;;3.50;;
76098;SDS011;64828;49.956;8.636;2024-02-15T00:06:50;6.57;;;4.00;;
76098;SDS011;64828;49.956;8.636;2024-02-15T00:07:06;7.10;;;4.10;;
76098;SDS011;64828;49.956;8.636;2024-02-15T00:07:21;5.70;;;3.85;;
76098;SDS011;64828;49.956;8.636;2024-02-15T00:07:38;5.10;;;3.78;;
76098;SDS011;64828;49.956;8.636;2024-02-15T00:07:54;5.80;;;3.90;;
76098;SDS011;64828;49.956;8.636;2024-02-15T00:08:09;6.18;;;3.78;;
76098;SDS011;64828;49.956;8.636;2024-02-15T00:08:25;5.63;;;3.73;;
76098;SDS011;64828;49.956;8.636;2024-02-15T00:08:41;5.75;;;3.80;;
76098;SDS011;64828;49.956;8.636;2024-02-15T00:08:57;5.77;;;3.73;;
76098;SDS011;64828;49.956;8.636;2024-02-15T00:09:12;5.72;;;3.85;;
76098;SDS011;64828;49.956;8.636;2024-02-15T00:09:28;5.83;;;3.87;;
76098;SDS011;64828;49.956;8.636;2024-02-15T00:09:44;7.63;;;3.97;;
76098;SDS011;64828;49.956;8.636;2024-02-15T00:09:59;7.67;;;3.90;;
76098;SDS011;64828;49.956;8.636;2024-02-15T00:10:15;6.70;;;3.72;;
76098;SDS011;64828;49.956;8.636;2024-02-15T00:10:31;5.82;;;3.60;;
76098;SDS011;64828;49.956;8.636;2024-02-15T00:10:46;6.38;;;3.53;;
76098;SDS011;64828;49.956;8.636;2024-02-15T00:11:02;8.13;;;4.03;;
76098;SDS011;64828;49.956;8.636;2024-02-15T00:11:18;7.28;;;4.10;;
76098;SDS011;64828;49.956;8.636;2024-02-15T00:11:34;5.97;;;3.72;;
76098;SDS011;64828;49.956;8.636;2024-02-15T00:11:49;6.83;;;3.70;;
76098;SDS011;64828;49.956;8.636;2024-02-15T00:12:05;9.00;;;3.90;;
76098;SDS011;64828;49.956;8.636;2024-02-15T00:12:21;8.20;;;3.88;;
76098;SDS011;64828;49.956;8.636;2024-02-15T00:12:36;6.68;;;3.60;;
76098;SDS011;64828;49.956;8.636;2024-02-15T00:12:52;8.73;;;3.70;;
76098;SDS011;64828;49.956;8.636;2024-02-15T00:13:08;7.53;;;3.75;;
76098;SDS011;64828;49.956;8.636;2024-02-15T00:13:23;4.70;;;3.53;;
76098;SDS011;64828;49.956;8.636;2024-02-15T00:13:39;4.97;;;3.40;;
76098;SDS011;64828;49.956;8.636;2024-02-15T00:13:56;5.80;;;3.50;;
76098;SDS011;64828;49.956;8.636;2024-02-15T00:14:12;7.55;;;3.88;;
76098;SDS011;64828;49.956;8.636;2024-02-15T00:14:27;7.23;;;3.87;;
76098;SDS011;64828;49.956;8.636;2024-02-15T00:14:43;5.50;;;3.70;;
76098;SDS011;64828;49.956;8.636;2024-02-15T00:14:59;6.72;;;3.80;;
76098;SDS011;64828;49.956;8.636;2024-02-15T00:15:14;6.50;;;3.60;;
76098;SDS011;64828;49.956;8.636;2024-02-15T00:15:30;5.60;;;3.25;;
76098;SDS011;64828;49.956;8.636;2024-02-15T00:15:45;5.50;;;3.10;;
76098;SDS011;64828;49.956;8.636;2024-02-15T00:16:05;6.40;;;3.60;;
76098;SDS011;64828;49.956;8.636;2024-02-15T00:16:21;7.78;;;4.00;;
76098;SDS011;64828;49.956;8.636;2024-02-15T00:16:36;7.17;;;3.73;;
76098;SDS011;64828;49.956;8.636;2024-02-15T00:16:52;6.63;;;3.78;;
76098;SDS011;64828;49.956;8.636;2024-02-15T00:17:07;6.80;;;3.60;;
76098;SDS011;64828;49.956;8.636;2024-02-15T00:17:23;6.07;;;3.50;;
76098;SDS011;64828;49.956;8.636;2024-02-15T00:17:44;5.35;;;3.55;;
76098;SDS011;64828;49.956;8.636;2024-02-15T00:18:01;4.93;;;3.50;;
76098;SDS011;64828;49.956;8.636;2024-02-15T00:18:18;6.13;;;3.67;;
76098;SDS011;64828;49.956;8.636;2024-02-15T00:18:33;6.87;;;3.70;;
76098;SDS011;64828;49.956;8.636;2024-02-15T00:18:49;6.78;;;3.75;;
76098;SDS011;64828;49.956;8.636;2024-02-15T00:19:05;6.10;;;3.80;;
76098;SDS011;64828;49.956;8.636;2024-02-15T00:19:21;5.43;;;3.72;;
76098;SDS011;64828;49.956;8.636;2024-02-15T00:19:37;5.95;;;4.00;;
76098;SDS011;64828;49.956;8.636;2024-02-15T00:19:56;6.82;;;3.78;;
76098;SDS011;64828;49.956;8.636;2024-02-15T00:20:12;6.80;;;3.75;;
76098;SDS011;64828;49.956;8.636;2024-02-15T00:20:28;7.85;;;3.85;;
76098;SDS011;64828;49.956;8.636;2024-02-15T00:20:43;7.37;;;3.80;;
76098;SDS011;64828;49.956;8.636;2024-02-15T00:21:00;5.95;;;3.88;;
76098;SDS011;64828;49.956;8.636;2024-02-15T00:21:15;7.00;;;4.00;;
76098;SDS011;64828;49.956;8.636;2024-02-15T00:21:31;7.15;;;3.80;;
76098;SDS011;64828;49.956;8.636;2024-02-15T00:21:47;7.50;;;3.67;;
76098;SDS011;64828;49.956;8.636;2024-02-15T00:22:02;7.25;;;3.50;;
76098;SDS011;64828;49.956;8.636;2024-02-15T00:22:19;6.63;;;3.65;;
76098;SDS011;64828;49.956;8.636;2024-02-15T00:22:36;7.18;;;4.03;;
76098;SDS011;64828;49.956;8.636;2024-02-15T00:22:52;6.65;;;3.55;;
76098;SDS011;64828;49.956;8.636;2024-02-15T00:23:07;4.97;;;3.50;;
76098;SDS011;64828;49.956;8.636;2024-02-15T00:23:23;5.43;;;3.50;;
76098;SDS011;64828;49.956;8.636;2024-02-15T00:23:40;5.53;;;3.27;;
76098;SDS011;64828;49.956;8.636;2024-02-15T00:23:57;5.90;;;3.33;;
76098;SDS011;64828;49.956;8.636;2024-02-15T00:24:14;6.65;;;3.60;;
76098;SDS011;64828;49.956;8.636;2024-02-15T00:24:30;6.65;;;3.50;;
76098;SDS011;64828;49.956;8.636;2024-02-15T00:24:45;4.97;;;3.37;;
76098;SDS011;64828;49.956;8.636;2024-02-15T00:25:01;4.53;;;3.55;;
76098;SDS011;64828;49.956;8.636;2024-02-15T00:25:17;5.38;;;3.85;;
76098;SDS011;64828;49.956;8.636;2024-02-15T00:25:34;6.07;;;3.65;;
76098;SDS011;64828;49.956;8.636;2024-02-15T00:25:50;6.43;;;3.63;;
76098;SDS011;64828;49.956;8.636;2024-02-15T00:26:06;6.35;;;3.67;;
76098;SDS011;64828;49.956;8.636;2024-02-15T00:26:22;6.00;;;3.70;;
76098;SDS011;64828;49.956;8.636;2024-02-15T00:26:37;4.65;;;3.35;;
76098;SDS011;64828;49.956;8.636;2024-02-15T00:26:53;5.13;;;3.33;;
76098;SDS011;64828;49.956;8.636;2024-02-15T00:27:09;6.22;;;3.50;;
76098;SDS011;64828;49.956;8.636;2024-02-15T00:27:25;6.38;;;3.60;;
76098;SDS011;64828;49.956;8.636;2024-02-15T00:27:41;6.07;;;3.45;;
76098;SDS011;64828;49.956;8.636;2024-02-15T00:27:57;5.60;;;3.55;;
76098;SDS011;64828;49.956;8.636;2024-02-15T00:28:15;5.82;;;3.70;;
76098;SDS011;64828;49.956;8.636;2024-02-15T00:28:30;5.43;;;3.53;;
76098;SDS011;64828;49.956;8.636;2024-02-15T00:28:48;5.25;;;3.50;;
76098;SDS011;64828;49.956;8.636;2024-02-15T00:29:04;5.20;;;3.33;;
76098;SDS011;64828;49.956;8.636;2024-02-15T00:29:20;5.33;;;3.60;;
76098;SDS011;64828;49.956;8.636;2024-02-15T00:29:35;5.18;;;3.60;;
76098;SDS011;64828;49.956;8.636;2024-02-15T00:29:51;5.85;;;3.60;;
76098;SDS011;64828;49.956;8.636;2024-02-15T00:30:07;6.03;;;3.50;;
76098;SDS011;64828;49.956;8.636;2024-02-15T00:30:23;6.28;;;3.60;;
76098;SDS011;64828;49.956;8.636;2024-02-15T00:30:39;7.25;;;3.80;;
76098;SDS011;64828;49.956;8.636;2024-02-15T00:30:55;6.10;;;3.70;;
76098;SDS011;64828;49.956;8.636;2024-02-15T00:31:10;4.80;;;3.50;;
76098;SDS011;64828;49.956;8.636;2024-02-15T00:31:26;5.35;;;3.40;;
76098;SDS011;64828;49.956;8.636;2024-02-15T00:31:42;6.33;;;3.50;;
76098;SDS011;64828;49.956;8.636;2024-02-15T00:31:57;5.47;;;3.50;;
76098;SDS011;64828;49.956;8.636;2024-02-15T00:32:13;4.93;;;3.33;;
76098;SDS011;64828;49.956;8.636;2024-02-15T00:32:28;5.60;;;3.45;;
76098;SDS011;64828;49.956;8.636;2024-02-15T00:32:44;5.53;;;3.28;;
76098;SDS011;64828;49.956;8.636;2024-02-15T00:33:01;6.47;;;3.20;;
76098;SDS011;64828;49.956;8.636;2024-02-15T00:33:17;5.65;;;3.50;;
76098;SDS011;64828;49.956;8.636;2024-02-15T00:33:33;4.88;;;3.35;;
76098;SDS011;64828;49.956;8.636;2024-02-15T00:33:51;5.22;;;3.30;;
76098;SDS011;64828;49.956;8.636;2024-02-15T00:34:07;6.00;;;3.63;;
76098;SDS011;64828;49.956;8.636;2024-02-15T00:34:23;6.20;;;3.58;;
76098;SDS011;64828;49.956;8.636;2024-02-15T00:34:41;5.57;;;3.22;;
76098;SDS011;64828;49.956;8.636;2024-02-15T00:34:56;6.35;;;3.22;;
76098;SDS011;64828;49.956;8.636;2024-02-15T00:35:12;6.60;;;3.33;;
76098;SDS011;64828;49.956;8.636;2024-02-15T00:35:28;6.32;;;3.60;;
76098;SDS011;64828;49.956;8.636;2024-02-15T00:35:44;5.93;;;3.72;;
76098;SDS011;64828;49.956;8.636;2024-02-15T00:35:59;7.78;;;3.70;;
76098;SDS011;64828;49.956;8.636;2024-02-15T00:36:16;6.05;;;3.30;;
76098;SDS011;64828;49.956;8.636;2024-02-15T00:36:32;5.90;;;3.33;;
76098;SDS011;64828;49.956;8.636;2024-02-15T00:36:48;7.27;;;3.90;;
76098;SDS011;64828;49.956;8.636;2024-02-15T00:37:04;7.13;;;3.70;;
76098;SDS011;64828;49.956;8.636;2024-02-15T00:37:20;5.97;;;3.47;;
76098;SDS011;64828;49.956;8.636;2024-02-15T00:37:36;4.97;;;3.35;;
76098;SDS011;64828;49.956;8.636;2024-02-15T00:37:51;5.07;;;3.20;;
76098;SDS011;64828;49.956;8.636;2024-02-15T00:38:07;4.73;;;3.23;;
76098;SDS011;64828;49.956;8.636;2024-02-15T00:38:22;4.50;;;3.30;;
76098;SDS011;64828;49.956;8.636;2024-02-15T00:38:38;5.90;;;3.50;;
76098;SDS011;64828;49.956;8.636;2024-02-15T00:38:54;6.03;;;3.60;;
76098;SDS011;64828;49.956;8.636;2024-02-15T00:39:10;5.97;;;3.40;;
76098;SDS011;64828;49.956;8.636;2024-02-15T00:39:28;7.63;;;3.40;;
76098;SDS011;64828;49.956;8.636;2024-02-15T00:39:44;5.80;;;3.67;;
76098;SDS011;64828;49.956;8.636;2024-02-15T00:40:00;5.03;;;3.40;;
76098;SDS011;64828;49.956;8.636;2024-02-15T00:40:18;5.55;;;3.35;;
76098;SDS011;64828;49.956;8.636;2024-02-15T00:40:35;5.95;;;3.83;;
76098;SDS011;64828;49.956;8.636;2024-02-15T00:40:51;5.60;;;3.50;;
76098;SDS011;64828;49.956;8.636;2024-02-15T00:41:08;5.35;;;3.47;;
76098;SDS011;64828;49.956;8.636;2024-02-15T00:41:23;5.70;;;3.60;;
76098;SDS011;64828;49.956;8.636;2024-02-15T00:41:39;5.43;;;3.60;;
76098;SDS011;64828;49.956;8.636;2024-02-15T00:41:56;5.00;;;3.90;;
76098;SDS011;64828;49.956;8.636;2024-02-15T00:42:15;5.20;;;3.90;;
76098;SDS011;64828;49.956;8.636;2024-02-15T00:42:30;6.05;;;3.42;;
76098;SDS011;64828;49.956;8.636;2024-02-15T00:42:49;6.30;;;3.35;;
76098;SDS011;64828;49.956;8.636;2024-02-15T00:43:04;5.55;;;3.35;;
76098;SDS011;64828;49.956;8.636;2024-02-15T00:43:20;6.17;;;3.23;;
76098;SDS011;64828;49.956;8.636;2024-02-15T00:43:35;5.85;;;3.60;;
76098;SDS011;64828;49.956;8.636;2024-02-15T00:43:51;5.30;;;3.85;;
76098;SDS011;64828;49.956;8.636;2024-02-15T00:44:08;6.27;;;3.70;;
76098;SDS011;64828;49.956;8.636;2024-02-15T00:44:25;6.57;;;3.70;;
76098;SDS011;64828;49.956;8.636;2024-02-15T00:44:42;6.07;;;3.72;;
76098;SDS011;64828;49.956;8.636;2024-02-15T00:44:57;6.43;;;3.65;;
76098;SDS011;64828;49.956;8.636;2024-02-15T00:45:13;6.00;;;3.67;;
76098;SDS011;64828;49.956;8.636;2024-02-15T00:45:29;5.50;;;3.60;;
76098;SDS011;64828;49.956;8.636;2024-02-15T00:45:45;5.60;;;3.60;;
76098;SDS011;64828;49.956;8.636;2024-02-15T00:46:00;6.35;;;3.65;;
76098;SDS011;64828;49.956;8.636;2024-02-15T00:46:16;6.20;;;3.50;;
76098;SDS011;64828;49.956;8.636;2024-02-15T00:46:32;6.22;;;3.45;;
76098;SDS011;64828;49.956;8.636;2024-02-15T00:46:47;5.47;;;3.30;;
76098;SDS011;64828;49.956;8.636;2024-02-15T00:47:03;4.97;;;3.35;;
76098;SDS011;64828;49.956;8.636;2024-02-15T00:47:19;5.47;;;3.63;;
76098;SDS011;64828;49.956;8.636;2024-02-15T00:47:36;5.30;;;3.63;;
76098;SDS011;64828;49.956;8.636;2024-02-15T00:47:53;5.13;;;3.50;;
76098;SDS011;64828;49.956;8.636;2024-02-15T00:48:09;4.72;;;3.33;;
76098;SDS011;64828;49.956;8.636;2024-02-15T00:48:24;5.30;;;3.42;;
76098;SDS011;64828;49.956;8.636;2024-02-15T00:48:43;6.10;;;3.78;;
76098;SDS011;64828;49.956;8.636;2024-02-15T00:48:58;5.22;;;3.75;;
76098;SDS011;64828;49.956;8.636;2024-02-15T00:49:15;5.78;;;3.67;;
76098;SDS011;64828;49.956;8.636;2024-02-15T00:49:30;6.20;;;3.40;;
76098;SDS011;64828;49.956;8.636;2024-02-15T00:49:47;7.32;;;3.28;;
76098;SDS011;64828;49.956;8.636;2024-02-15T00:50:02;7.20;;;3.37;;
76098;SDS011;64828;49.956;8.636;2024-02-15T00:50:19;6.13;;;3.28;;
76098;SDS011;64828;49.956;8.636;2024-02-15T00:50:34;5.97;;;3.27;;
76098;SDS011;64828;49.956;8.636;2024-02-15T00:50:50;5.50;;;3.35;;
76098;SDS011;64828;49.956;8.636;2024-02-15T00:51:05;5.70;;;3.40;;
76098;SDS011;64828;49.956;8.636;2024-02-15T00:51:21;5.75;;;3.50;;
76098;SDS011;64828;49.956;8.636;2024-02-15T00:51:37;6.28;;;3.67;;
76098;SDS011;64828;49.956;8.636;2024-02-15T00:51:53;6.55;;;3.80;;
76098;SDS011;64828;49.956;8.636;2024-02-15T00:52:08;6.23;;;3.67;;
76098;SDS011;64828;49.956;8.636;2024-02-15T00:52:24;6.40;;;3.42;;
76098;SDS011;64828;49.956;8.636;2024-02-15T00:52:40;5.72;;;3.50;;
76098;SDS011;64828;49.956;8.636;2024-02-15T00:52:56;6.85;;;3.70;;
76098;SDS011;64828;49.956;8.636;2024-02-15T00:53:11;6.77;;;3.63;;
76098;SDS011;64828;49.956;8.636;2024-02-15T00:53:27;4.90;;;3.40;;
76098;SDS011;64828;49.956;8.636;2024-02-15T00:53:43;4.85;;;3.47;;
76098;SDS011;64828;49.956;8.636;2024-02-15T00:53:58;4.83;;;3.50;;
76098;SDS011;64828;49.956;8.636;2024-02-15T00:54:15;5.47;;;3.67;;
76098;SDS011;64828;49.956;8.636;2024-02-15T00:54:31;5.75;;;3.70;;
76098;SDS011;64828;49.956;8.636;2024-02-15T00:54:46;6.13;;;3.60;;
76098;SDS011;64828;49.956;8.636;2024-02-15T00:55:02;6.32;;;3.40;;
76098;SDS011;64828;49.956;8.636;2024-02-15T00:55:18;4.97;;;3.28;;
76098;SDS011;64828;49.956;8.636;2024-02-15T00:55:35;5.22;;;3.50;;
76098;SDS011;64828;49.956;8.636;2024-02-15T00:55:51;6.43;;;3.55;;
76098;SDS011;64828;49.956;8.636;2024-02-15T00:56:07;5.90;;;3.53;;
76098;SDS011;64828;49.956;8.636;2024-02-15T00:56:22;4.83;;;3.53;;
76098;SDS011;64828;49.956;8.636;2024-02-15T00:56:39;6.75;;;3.70;;
76098;SDS011;64828;49.956;8.636;2024-02-15T00:56:54;6.43;;;3.43;;
76098;SDS011;64828;49.956;8.636;2024-02-15T00:57:10;6.35;;;3.47;;
76098;SDS011;64828;49.956;8.636;2024-02-15T00:57:26;6.90;;;3.75;;
76098;SDS011;64828;49.956;8.636;2024-02-15T00:57:41;6.50;;;3.70;;
76098;SDS011;64828;49.956;8.636;2024-02-15T00:57:57;5.75;;;3.58;;
76098;SDS011;64828;49.956;8.636;2024-02-15T00:58:13;4.73;;;3.40;;
76098;SDS011;64828;49.956;8.636;2024-02-15T00:58:28;5.80;;;3.60;;
76098;SDS011;64828;49.956;8.636;2024-02-15T00:58:45;7.13;;;3.50;;
76098;SDS011;64828;49.956;8.636;2024-02-15T00:59:00;6.90;;;3.47;;
76098;SDS011;64828;49.956;8.636;2024-02-15T00:59:16;6.00;;;3.40;;
76098;SDS011;64828;49.956;8.636;2024-02-15T00:59:31;5.27;;;3.27;;
76098;SDS011;64828;49.956;8.636;2024-02-15T00:59:50;5.55;;;3.42;;
76098;SDS011;64828;49.956;8.636;2024-02-15T01:00:07;5.90;;;3.63;;
76098;SDS011;64828;49.956;8.636;2024-02-15T01:00:24;5.93;;;4.15;;
76098;SDS011;64828;49.956;8.636;2024-02-15T01:00:41;6.35;;;3.90;;
76098;SDS011;64828;49.956;8.636;2024-02-15T01:00:56;6.20;;;3.60;;
76098;SDS011;64828;49.956;8.636;2024-02-15T01:01:12;7.80;;;4.47;;
76098;SDS011;64828;49.956;8.636;2024-02-15T01:01:28;8.05;;;4.57;;
76098;SDS011;64828;49.956;8.636;2024-02-15T01:01:44;4.97;;;3.58;;
76098;SDS011;64828;49.956;8.636;2024-02-15T01:01:59;5.07;;;3.40;;
76098;SDS011;64828;49.956;8.636;2024-02-15T01:02:15;6.82;;;3.55;;
76098;SDS011;64828;49.956;8.636;2024-02-15T01:02:30;6.50;;;3.73;;
76098;SDS011;64828;49.956;8.636;2024-02-15T01:02:46;5.85;;;3.70;;
76098;SDS011;64828;49.956;8.636;2024-02-15T01:03:02;6.07;;;3.70;;
76098;SDS011;64828;49.956;8.636;2024-02-15T01:03:18;5.40;;;3.50;;
76098;SDS011;64828;49.956;8.636;2024-02-15T01:03:34;5.82;;;3.22;;
76098;SDS011;64828;49.956;8.636;2024-02-15T01:03:50;6.70;;;3.40;;
76098;SDS011;64828;49.956;8.636;2024-02-15T01:04:06;6.10;;;3.50;;
76098;SDS011;64828;49.956;8.636;2024-02-15T01:04:22;5.63;;;3.40;;
76098;SDS011;64828;49.956;8.636;2024-02-15T01:04:37;6.93;;;3.87;;
76098;SDS011;64828;49.956;8.636;2024-02-15T01:04:54;6.82;;;4.07;;
76098;SDS011;64828;49.956;8.636;2024-02-15T01:05:12;6.25;;;3.50;;
76098;SDS011;64828;49.956;8.636;2024-02-15T01:05:30;5.45;;;3.58;;
76098;SDS011;64828;49.956;8.636;2024-02-15T01:05:46;4.50;;;3.57;;
76098;SDS011;64828;49.956;8.636;2024-02-15T01:06:01;5.40;;;3.65;;
76098;SDS011;64828;49.956;8.636;2024-02-15T01:06:17;5.68;;;3.78;;
76098;SDS011;64828;49.956;8.636;2024-02-15T01:06:33;4.82;;;3.65;;
76098;SDS011;64828;49.956;8.636;2024-02-15T01:06:49;5.95;;;3.45;;
76098;SDS011;64828;49.956;8.636;2024-02-15T01:07:04;7.33;;;3.60;;
76098;SDS011;64828;49.956;8.636;2024-02-15T01:07:20;6.57;;;3.58;;
76098;SDS011;64828;49.956;8.636;2024-02-15T01:07:36;5.87;;;3.40;;
76098;SDS011;64828;49.956;8.636;2024-02-15T01:07:51;6.50;;;3.53;;
76098;SDS011;64828;49.956;8.636;2024-02-15T01:08:07;7.35;;;3.85;;
76098;SDS011;64828;49.956;8.636;2024-02-15T01:08:23;6.57;;;3.80;;
76098;SDS011;64828;49.956;8.636;2024-02-15T01:08:39;5.85;;;3.72;;
76098;SDS011;64828;49.956;8.636;2024-02-15T01:08:55;6.60;;;3.67;;
76098;SDS011;64828;49.956;8.636;2024-02-15T01:09:12;7.25;;;3.60;;
76098;SDS011;64828;49.956;8.636;2024-02-15T01:09:29;6.25;;;3.75;;
76098;SDS011;64828;49.956;8.636;2024-02-15T01:09:44;5.95;;;3.60;;
76098;SDS011;64828;49.956;8.636;2024-02-15T01:10:00;6.20;;;3.67;;
76098;SDS011;64828;49.956;8.636;2024-02-15T01:10:16;6.97;;;3.80;;
76098;SDS011;64828;49.956;8.636;2024-02-15T01:10:32;7.75;;;4.07;;
76098;SDS011;64828;49.956;8.636;2024-02-15T01:10:48;7.05;;;3.75;;
76098;SDS011;64828;49.956;8.636;2024-02-15T01:11:04;6.40;;;3.33;;
76098;SDS011;64828;49.956;8.636;2024-02-15T01:11:21;5.93;;;3.60;;
76098;SDS011;64828;49.956;8.636;2024-02-15T01:11:36;7.25;;;3.92;;
76098;SDS011;64828;49.956;8.636;2024-02-15T01:11:52;7.53;;;3.97;;
76098;SDS011;64828;49.956;8.636;2024-02-15T01:12:08;6.80;;;3.75;;
76098;SDS011;64828;49.956;8.636;2024-02-15T01:12:24;6.43;;;3.72;;
76098;SDS011;64828;49.956;8.636;2024-02-15T01:12:40;6.38;;;3.67;;
76098;SDS011;64828;49.956;8.636;2024-02-15T01:12:56;5.27;;;3.50;;
76098;SDS011;64828;49.956;8.636;2024-02-15T01:13:11;4.72;;;3.40;;
76098;SDS011;64828;49.956;8.636;2024-02-15T01:13:27;5.60;;;3.57;;
76098;SDS011;64828;49.956;8.636;2024-02-15T01:13:43;5.40;;;3.58;;
76098;SDS011;64828;49.956;8.636;2024-02-15T01:13:59;4.90;;;3.40;;
76098;SDS011;64828;49.956;8.636;2024-02-15T01:14:15;5.47;;;3.60;;
76098;SDS011;64828;49.956;8.636;2024-02-15T01:14:30;6.00;;;3.72;;
76098;SDS011;64828;49.956;8.636;2024-02-15T01:14:46;7.07;;;3.80;;
76098;SDS011;64828;49.956;8.636;2024-02-15T01:15:02;9.43;;;3.95;;
76098;SDS011;64828;49.956;8.636;2024-02-15T01:15:19;8.73;;;3.60;;
76098;SDS011;64828;49.956;8.636;2024-02-15T01:15:35;8.77;;;3.40;;
76098;SDS011;64828;49.956;8.636;2024-02-15T01:15:52;6.53;;;3.53;;
76098;SDS011;64828;49.956;8.636;2024-02-15T01:16:08;5.45;;;3.45;;
76098;SDS011;64828;49.956;8.636;2024-02-15T01:16:23;7.07;;;3.20;;
76098;SDS011;64828;49.956;8.636;2024-02-15T01:16:39;7.53;;;3.22;;
76098;SDS011;64828;49.956;8.636;2024-02-15T01:16:55;5.60;;;3.40;;
76098;SDS011;64828;49.956;8.636;2024-02-15T01:17:11;5.32;;;3.40;;
76098;SDS011;64828;49.956;8.636;2024-02-15T01:17:27;5.57;;;3.30;;
76098;SDS011;64828;49.956;8.636;2024-02-15T01:17:42;5.32;;;3.40;;
76098;SDS011;64828;49.956;8.636;2024-02-15T01:17:58;4.57;;;3.07;;
76098;SDS011;64828;49.956;8.636;2024-02-15T01:18:14;4.63;;;2.92;;
76098;SDS011;64828;49.956;8.636;2024-02-15T01:18:29;6.00;;;3.27;;
76098;SDS011;64828;49.956;8.636;2024-02-15T01:18:46;5.78;;;3.30;;
76098;SDS011;64828;49.956;8.636;2024-02-15T01:19:02;6.10;;;3.35;;
76098;SDS011;64828;49.956;8.636;2024-02-15T01:19:18;6.07;;;3.40;;
76098;SDS011;64828;49.956;8.636;2024-02-15T01:19:34;4.75;;;3.20;;
76098;SDS011;64828;49.956;8.636;2024-02-15T01:19:50;4.35;;;3.15;;
76098;SDS011;64828;49.956;8.636;2024-02-15T01:20:05;5.28;;;3.50;;
76098;SDS011;64828;49.956;8.636;2024-02-15T01:20:22;5.70;;;3.38;;
76098;SDS011;64828;49.956;8.636;2024-02-15T01:20:38;5.45;;;3.10;;
76098;SDS011;64828;49.956;8.636;2024-02-15T01:20:53;5.10;;;3.40;;
76098;SDS011;64828;49.956;8.636;2024-02-15T01:21:09;4.45;;;3.17;;
76098;SDS011;64828;49.956;8.636;2024-02-15T01:21:26;5.32;;;3.20;;
76098;SDS011;64828;49.956;8.636;2024-02-15T01:21:41;5.18;;;3.30;;
76098;SDS011;64828;49.956;8.636;2024-02-15T01:21:59;4.97;;;3.30;;
76098;SDS011;64828;49.956;8.636;2024-02-15T01:22:14;6.03;;;3.50;;
76098;SDS011;64828;49.956;8.636;2024-02-15T01:22:30;5.93;;;3.40;;
76098;SDS011;64828;49.956;8.636;2024-02-15T01:22:46;5.57;;;3.20;;
76098;SDS011;64828;49.956;8.636;2024-02-15T01:23:02;4.85;;;3.30;;
76098;SDS011;64828;49.956;8.636;2024-02-15T01:23:20;5.78;;;3.53;;
76098;SDS011;64828;49.956;8.636;2024-02-15T01:23:37;7.18;;;3.63;;
76098;SDS011;64828;49.956;8.636;2024-02-15T01:23:53;5.82;;;3.40;;
76098;SDS011;64828;49.956;8.636;2024-02-15T01:24:11;5.20;;;3.20;;
76098;SDS011;64828;49.956;8.636;2024-02-15T01:24:27;8.30;;;3.90;;
76098;SDS011;64828;49.956;8.636;2024-02-15T01:24:42;8.60;;;3.83;;
76098;SDS011;64828;49.956;8.636;2024-02-15T01:24:58;6.50;;;3.60;;
76098;SDS011;64828;49.956;8.636;2024-02-15T01:25:13;5.03;;;3.30;;
76098;SDS011;64828;49.956;8.636;2024-02-15T01:25:30;4.85;;;3.20;;
76098;SDS011;64828;49.956;8.636;2024-02-15T01:25:46;6.28;;;3.30;;
76098;SDS011;64828;49.956;8.636;2024-02-15T01:26:01;5.87;;;3.47;;
76098;SDS011;64828;49.956;8.636;2024-02-15T01:26:17;6.40;;;3.70;;
76098;SDS011;64828;49.956;8.636;2024-02-15T01:26:33;6.93;;;3.60;;
76098;SDS011;64828;49.956;8.636;2024-02-15T01:26:49;6.50;;;3.50;;
76098;SDS011;64828;49.956;8.636;2024-02-15T01:27:05;6.38;;;3.50;;
76098;SDS011;64828;49.956;8.636;2024-02-15T01:27:22;5.40;;;3.22;;
76098;SDS011;64828;49.956;8.636;2024-02-15T01:27:38;5.47;;;3.33;;
76098;SDS011;64828;49.956;8.636;2024-02-15T01:27:54;7.00;;;3.40;;
76098;SDS011;64828;49.956;8.636;2024-02-15T01:28:09;7.20;;;3.40;;
76098;SDS011;64828;49.956;8.636;2024-02-15T01:28:26;6.65;;;3.25;;
76098;SDS011;64828;49.956;8.636;2024-02-15T01:28:41;7.37;;;3.53;;
76098;SDS011;64828;49.956;8.636;2024-02-15T01:28:58;7.35;;;3.70;;
76098;SDS011;64828;49.956;8.636;2024-02-15T01:29:13;6.87;;;3.50;;
76098;SDS011;64828;49.956;8.636;2024-02-15T01:29:29;7.65;;;3.50;;
76098;SDS011;64828;49.956;8.636;2024-02-15T01:29:44;7.78;;;3.42;;
76098;SDS011;64828;49.956;8.636;2024-02-15T01:30:00;6.47;;;3.20;;
76098;SDS011;64828;49.956;8.636;2024-02-15T01:30:16;5.35;;;3.30;;
76098;SDS011;64828;49.956;8.636;2024-02-15T01:30:31;6.30;;;3.40;;
76098;SDS011;64828;49.956;8.636;2024-02-15T01:30:47;7.80;;;3.40;;
76098;SDS011;64828;49.956;8.636;2024-02-15T01:31:03;7.68;;;3.40;;
76098;SDS011;64828;49.956;8.636;2024-02-15T01:31:18;6.27;;;3.70;;
76098;SDS011;64828;49.956;8.636;2024-02-15T01:31:34;5.22;;;3.60;;
76098;SDS011;64828;49.956;8.636;2024-02-15T01:31:50;5.38;;;3.35;;
76098;SDS011;64828;49.956;8.636;2024-02-15T01:32:05;5.30;;;3.40;;
76098;SDS011;64828;49.956;8.636;2024-02-15T01:32:21;5.38;;;3.53;;
76098;SDS011;64828;49.956;8.636;2024-02-15T01:32:36;7.27;;;3.60;;
76098;SDS011;64828;49.956;8.636;2024-02-15T01:32:54;6.85;;;3.50;;
76098;SDS011;64828;49.956;8.636;2024-02-15T01:33:10;6.05;;;3.45;;
76098;SDS011;64828;49.956;8.636;2024-02-15T01:33:26;6.10;;;3.47;;
76098;SDS011;64828;49.956;8.636;2024-02-15T01:33:42;5.93;;;3.30;;
76098;SDS011;64828;49.956;8.636;2024-02-15T01:33:59;6.25;;;3.40;;
76098;SDS011;64828;49.956;8.636;2024-02-15T01:34:14;7.47;;;3.80;;
76098;SDS011;64828;49.956;8.636;2024-02-15T01:34:30;8.15;;;3.70;;
76098;SDS011;64828;49.956;8.636;2024-02-15T01:34:46;6.73;;;3.40;;
76098;SDS011;64828;49.956;8.636;2024-02-15T01:35:01;5.60;;;3.30;;
76098;SDS011;64828;49.956;8.636;2024-02-15T01:35:17;6.40;;;3.10;;
76098;SDS011;64828;49.956;8.636;2024-02-15T01:35:33;6.40;;;3.40;;
76098;SDS011;64828;49.956;8.636;2024-02-15T01:35:50;6.18;;;3.67;;
76098;SDS011;64828;49.956;8.636;2024-02-15T01:36:06;5.43;;;3.50;;
76098;SDS011;64828;49.956;8.636;2024-02-15T01:36:21;5.53;;;3.42;;
76098;SDS011;64828;49.956;8.636;2024-02-15T01:36:37;6.10;;;3.40;;